New York, New York
Traffic Map
Current Weather Conditions
New York, New York
Overcast
Overcast
19°
Feels Like: 19°
Wind Chill: 19° Ceiling: 900
Heat Index: 19° Visibility: 2mi
Dew Point: 16° Wind: 6mph
Humidity: 83% Direction: 60° (ENE)
Pressure: 30.06in Gusts: 0mph
Raw Report DataKJRB 011615Z AUTO 06005KT 2SM OVC009 19/16 A3006 RMK AO1 VIS 1 1/2V3 P0001
Traffic Incident Summary
Active as of:
Severity:
Category:
InformationThere was an issue retrieving the traffic information for this location. Please try a different location or try again shortly.
Advertisements
Track Severe Weather on mobile